createdAt,value
2023-11-29T00:00:08.953Z,100.00
2023-11-29T00:02:42.088Z,98.71
2023-11-29T00:05:11.684Z,97.89
2023-11-29T00:07:42.329Z,97.47
2023-11-29T00:10:10.099Z,97.54
2023-11-29T00:12:38.619Z,96.66
2023-11-29T00:15:06.499Z,96.14
2023-11-29T00:17:34.524Z,95.76
2023-11-29T00:20:01.933Z,96.26
2023-11-29T00:22:29.230Z,95.72
2023-11-29T00:24:56.430Z,95.67
2023-11-29T00:27:23.440Z,94.98
2023-11-29T00:29:50.520Z,95.01
2023-11-29T00:32:17.691Z,94.55
2023-11-29T00:34:44.683Z,93.71
2023-11-29T00:37:11.734Z,93.54
2023-11-29T00:39:38.903Z,92.97
2023-11-29T00:42:05.969Z,93.76
2023-11-29T00:44:33.695Z,93.54
2023-11-29T00:47:00.770Z,93.11
2023-11-29T00:49:27.746Z,92.01
2023-11-29T00:51:54.756Z,92.03
2023-11-29T00:54:21.842Z,91.66
2023-11-29T00:56:49.174Z,91.00
2023-11-29T01:39:27.745Z,98.01
2023-11-29T01:41:54.719Z,97.67
2023-11-29T01:44:21.822Z,98.56
2023-11-29T01:46:49.613Z,96.69
2023-11-29T01:49:20.357Z,97.83
2023-11-29T01:51:47.906Z,97.19
2023-11-29T01:54:16.244Z,98.10
2023-11-29T01:56:43.427Z,97.27
2023-11-29T01:59:10.514Z,96.93
2023-11-29T02:01:37.764Z,96.54
2023-11-29T02:04:05.871Z,96.32
2023-11-29T02:06:32.944Z,96.15
2023-11-29T02:09:00.167Z,96.16
2023-11-29T02:11:29.856Z,95.27
2023-11-29T02:13:57.023Z,96.88
2023-11-29T02:16:24.124Z,96.61
2023-11-29T02:18:51.346Z,96.71
2023-11-29T02:21:20.109Z,97.43
2023-11-29T02:24:02.097Z,97.58
2023-11-29T02:26:29.724Z,97.08
2023-11-29T02:28:56.858Z,95.85
2023-11-29T02:31:24.001Z,95.91
2023-11-29T02:33:51.018Z,96.26
2023-11-29T02:36:18.594Z,96.80
2023-11-29T02:38:45.628Z,97.69
2023-11-29T02:41:12.778Z,98.88
2023-11-29T02:43:39.849Z,99.93
2023-11-29T02:46:06.913Z,100.00
2023-11-29T02:48:34.065Z,99.76
2023-11-29T02:51:01.353Z,99.22
2023-11-29T02:53:28.429Z,99.54
2023-11-29T02:55:55.471Z,97.58
2023-11-29T02:58:22.521Z,97.53
2023-11-29T03:01:16.981Z,97.19
2023-11-29T03:03:44.046Z,98.49
2023-11-29T03:06:11.125Z,98.16
2023-11-29T03:08:39.077Z,98.40
2023-11-29T03:11:06.478Z,98.96
2023-11-29T03:13:33.482Z,99.05
2023-11-29T03:16:04.063Z,99.13
2023-11-29T03:18:31.936Z,98.19
2023-11-29T03:20:59.075Z,97.75
2023-11-29T03:23:26.117Z,97.04
2023-11-29T03:25:53.168Z,96.69
2023-11-29T03:28:20.252Z,96.41
2023-11-29T03:30:47.291Z,95.18
2023-11-29T03:33:14.937Z,95.44
2023-11-29T03:35:42.228Z,96.65
2023-11-29T03:38:11.329Z,97.69
2023-11-29T03:40:38.448Z,99.15
2023-11-29T03:43:05.481Z,98.35
2023-11-29T03:45:32.512Z,96.91
2023-11-29T03:47:59.888Z,97.45
2023-11-29T03:50:28.377Z,97.45
2023-11-29T03:52:55.555Z,97.68
2023-11-29T03:55:22.618Z,97.49
2023-11-29T03:57:49.712Z,96.73
2023-11-29T04:00:17.154Z,97.60
2023-11-29T04:02:45.281Z,96.24
2023-11-29T04:05:12.714Z,97.79
2023-11-29T04:07:39.895Z,97.25
2023-11-29T04:10:10.066Z,97.04
2023-11-29T04:12:38.668Z,97.43
2023-11-29T04:15:06.309Z,99.01
2023-11-29T04:17:33.694Z,97.75
2023-11-29T04:20:00.871Z,98.25
2023-11-29T04:22:27.853Z,98.77
2023-11-29T04:24:54.847Z,100.00
2023-11-29T04:27:22.522Z,100.00
2023-11-29T04:29:49.789Z,100.00
2023-11-29T04:32:17.202Z,100.00
2023-11-29T04:34:47.868Z,100.00
2023-11-29T04:37:16.482Z,100.00
2023-11-29T04:39:50.144Z,100.00
2023-11-29T04:42:17.355Z,100.00
2023-11-29T04:44:45.073Z,100.00
2023-11-29T04:47:12.288Z,100.00
2023-11-29T04:49:41.307Z,99.95
2023-11-29T04:52:09.692Z,98.69
2023-11-29T04:54:37.069Z,98.89
2023-11-29T04:57:04.642Z,98.95
2023-11-29T04:59:32.471Z,97.12
2023-11-29T05:02:00.492Z,97.64
2023-11-29T05:04:28.232Z,97.31
2023-11-29T05:06:55.450Z,98.48
2023-11-29T05:09:22.996Z,97.55
2023-11-29T05:11:51.842Z,98.03
2023-11-29T05:14:19.270Z,98.28
2023-11-29T05:16:46.305Z,97.61
2023-11-29T05:19:13.427Z,97.75
2023-11-29T05:21:40.558Z,97.47
2023-11-29T05:24:07.938Z,97.88
2023-11-29T05:26:35.021Z,99.17
2023-11-29T05:29:04.061Z,100.00
2023-11-29T05:31:31.299Z,100.00
2023-11-29T05:33:58.352Z,100.00
2023-11-29T05:36:26.325Z,100.00
2023-11-29T05:38:53.481Z,100.00
2023-11-29T05:41:20.510Z,99.57
2023-11-29T05:43:47.660Z,99.15
2023-11-29T05:46:14.845Z,97.71
2023-11-29T05:48:43.518Z,97.63
2023-11-29T05:51:12.915Z,95.86
2023-11-29T05:53:40.151Z,96.79
2023-11-29T05:56:07.908Z,96.11
2023-11-29T05:58:41.028Z,96.44
2023-11-29T06:01:08.788Z,95.90
2023-11-29T06:03:36.815Z,95.74
2023-11-29T06:06:04.110Z,94.47
2023-11-29T06:08:31.323Z,93.86
2023-11-29T06:10:58.828Z,94.14
2023-11-29T06:13:25.858Z,94.27
2023-11-29T06:15:52.963Z,93.07
2023-11-29T06:18:21.229Z,93.25
2023-11-29T06:20:48.381Z,93.79
2023-11-29T06:23:15.626Z,93.54
2023-11-29T06:25:43.622Z,92.41
2023-11-29T06:28:10.727Z,91.92
2023-11-29T06:30:37.886Z,90.80
2023-11-29T06:33:05.702Z,91.24
2023-11-29T06:35:33.032Z,90.41
2023-11-29T06:38:05.909Z,90.84
2023-11-29T06:40:37.668Z,93.59
2023-11-29T06:43:08.773Z,92.03
2023-11-29T06:45:36.905Z,92.77
2023-11-29T06:48:04.910Z,91.44
2023-11-29T06:50:32.156Z,91.80
2023-11-29T06:53:01.409Z,90.53
2023-11-29T06:55:30.045Z,92.27
2023-11-29T06:57:58.889Z,92.69
2023-11-29T07:00:27.798Z,91.42
2023-11-29T07:02:55.453Z,90.85
2023-11-29T07:05:22.553Z,91.57
2023-11-29T07:07:52.031Z,91.35
2023-11-29T07:10:22.943Z,91.33
2023-11-29T07:12:50.187Z,91.24
2023-11-29T07:15:17.561Z,90.52
2023-11-29T07:17:44.835Z,90.72
2023-11-29T07:20:12.326Z,90.87
2023-11-29T07:22:39.636Z,90.60
2023-11-29T07:25:08.018Z,90.42
2023-11-29T07:27:35.264Z,91.54
2023-11-29T07:30:02.842Z,90.95
2023-11-29T07:32:33.740Z,90.56
2023-11-29T07:35:00.948Z,91.48
2023-11-29T07:37:30.706Z,91.81
2023-11-29T07:39:57.989Z,92.17
2023-11-29T07:42:26.053Z,91.98
2023-11-29T07:44:56.246Z,91.48
2023-11-29T07:47:25.017Z,90.78
2023-11-29T07:49:52.032Z,90.17
2023-11-29T07:52:19.210Z,88.53
2023-11-29T07:54:46.377Z,88.64
2023-11-29T07:57:13.749Z,88.21
2023-11-29T08:02:46.344Z,86.39
2023-11-29T08:05:17.312Z,86.12
2023-11-29T08:07:44.376Z,85.78
2023-11-29T08:10:12.624Z,85.69
2023-11-29T08:12:39.672Z,85.88
2023-11-29T08:15:07.329Z,84.58
2023-11-29T08:17:34.825Z,84.44
2023-11-29T08:20:02.193Z,84.16
2023-11-29T08:22:34.288Z,86.96
2023-11-29T08:25:01.527Z,87.28
2023-11-29T08:27:30.886Z,88.58
2023-11-29T08:29:58.601Z,88.50
2023-11-29T08:32:28.854Z,88.23
2023-11-29T08:34:56.058Z,87.69
2023-11-29T08:37:24.319Z,87.04
2023-11-29T08:39:51.689Z,86.32
2023-11-29T08:42:19.485Z,86.03
2023-11-29T08:44:46.757Z,84.66
2023-11-29T08:47:14.068Z,84.12
2023-11-29T08:49:41.436Z,83.61
2023-11-29T08:52:08.420Z,84.06
2023-11-29T08:54:35.568Z,83.65
2023-11-29T08:57:03.085Z,83.73
2023-11-29T08:59:30.238Z,83.56
2023-11-29T09:01:57.506Z,83.42
2023-11-29T09:04:27.118Z,83.04
2023-11-29T09:06:54.762Z,81.76
2023-11-29T09:09:21.817Z,81.15
2023-11-29T09:11:49.040Z,78.75
2023-11-29T09:14:16.220Z,77.55
2023-11-29T09:16:43.377Z,77.10
2023-11-29T09:19:11.873Z,77.34
2023-11-29T09:21:39.879Z,77.23
2023-11-29T09:24:07.397Z,77.84
2023-11-29T09:26:34.536Z,77.88
2023-11-29T09:29:03.281Z,77.51
2023-11-29T09:31:30.428Z,76.89
2023-11-29T09:33:58.741Z,77.10
2023-11-29T09:36:26.802Z,77.47
2023-11-29T09:38:53.985Z,77.51
2023-11-29T09:41:22.594Z,77.67
2023-11-29T09:43:50.713Z,77.73
2023-11-29T09:46:18.555Z,77.18
2023-11-29T09:48:46.253Z,77.81
2023-11-29T09:51:13.490Z,77.34
2023-11-29T09:53:40.591Z,76.86
2023-11-29T09:56:10.300Z,78.22
2023-11-29T09:58:37.368Z,77.79
2023-11-29T10:01:04.951Z,77.50
2023-11-29T10:03:32.782Z,77.11
2023-11-29T10:06:00.030Z,76.19
2023-11-29T10:08:29.217Z,77.33
2023-11-29T10:10:56.633Z,77.78
2023-11-29T10:13:24.079Z,79.33
2023-11-29T10:15:52.203Z,79.29
2023-11-29T10:18:20.913Z,79.39
2023-11-29T10:21:00.497Z,78.48
2023-11-29T10:23:34.886Z,77.76
2023-11-29T10:26:02.220Z,77.57
2023-11-29T10:28:29.267Z,77.22
2023-11-29T10:30:57.770Z,76.68
2023-11-29T10:33:27.156Z,76.96
2023-11-29T10:35:55.614Z,76.85
2023-11-29T10:38:25.107Z,76.06
2023-11-29T10:40:54.001Z,75.35
2023-11-29T10:43:27.323Z,72.58
2023-11-29T10:46:07.848Z,72.06
2023-11-29T10:48:38.614Z,68.96
2023-11-29T10:51:07.008Z,66.86
2023-11-29T10:53:34.375Z,65.59
2023-11-29T10:56:05.116Z,63.42
2023-11-29T10:59:03.132Z,63.28
2023-11-29T11:01:35.545Z,62.70
2023-11-29T11:04:04.644Z,63.00
2023-11-29T11:06:31.864Z,64.03
2023-11-29T11:08:59.090Z,64.03
2023-11-29T11:11:48.719Z,64.19
2023-11-29T11:14:23.732Z,64.09
2023-11-29T11:17:04.262Z,64.09
2023-11-29T11:19:35.276Z,63.05
2023-11-29T11:22:04.406Z,63.36
2023-11-29T11:24:56.395Z,62.81
2023-11-29T11:27:34.054Z,63.02
2023-11-29T11:30:13.710Z,62.67
2023-11-29T11:32:43.642Z,62.23
2023-11-29T11:35:24.808Z,62.17
2023-11-29T11:37:54.637Z,61.71
2023-11-29T11:40:23.910Z,62.24
2023-11-29T11:42:52.702Z,61.30
2023-11-29T11:45:20.370Z,60.97
2023-11-29T11:47:47.675Z,61.12
2023-11-29T11:50:17.954Z,61.76
2023-11-29T11:52:45.570Z,61.06
2023-11-29T11:55:14.596Z,60.99
2023-11-29T11:57:41.900Z,59.84
2023-11-29T12:00:10.533Z,60.41
2023-11-29T12:02:41.004Z,59.87
2023-11-29T12:05:09.204Z,59.59
2023-11-29T12:07:40.975Z,59.54
2023-11-29T12:10:11.934Z,59.02
2023-11-29T12:12:44.478Z,59.77
2023-11-29T12:15:17.153Z,59.67
2023-11-29T12:17:46.149Z,59.75
2023-11-29T12:20:15.070Z,58.73
2023-11-29T12:22:45.574Z,58.60
2023-11-29T12:25:14.976Z,58.73
2023-11-29T12:27:50.651Z,58.24
2023-11-29T12:30:18.581Z,57.35
2023-11-29T12:32:46.307Z,57.84
2023-11-29T12:35:16.817Z,56.95
2023-11-29T12:37:49.444Z,57.70
2023-11-29T12:40:19.292Z,58.20
2023-11-29T12:42:49.253Z,57.64
2023-11-29T12:45:20.011Z,58.11
2023-11-29T12:47:47.887Z,58.07
2023-11-29T12:50:15.898Z,57.36
2023-11-29T12:52:43.023Z,57.09
2023-11-29T12:55:10.184Z,57.06
2023-11-29T12:57:37.794Z,57.72
2023-11-29T13:00:06.649Z,58.00
2023-11-29T13:02:34.063Z,57.05
2023-11-29T13:05:01.973Z,56.19
2023-11-29T13:07:32.583Z,56.29
2023-11-29T13:10:00.415Z,56.67
2023-11-29T13:12:29.036Z,57.45
2023-11-29T13:14:58.812Z,57.70
2023-11-29T13:17:26.056Z,59.42
2023-11-29T13:19:53.168Z,61.01
2023-11-29T13:22:21.417Z,61.59
2023-11-29T13:24:48.537Z,61.82
2023-11-29T13:27:17.032Z,63.17
2023-11-29T13:29:44.829Z,63.16
2023-11-29T13:32:14.497Z,63.70
2023-11-29T13:34:42.136Z,64.16
2023-11-29T13:37:10.436Z,63.64
2023-11-29T13:39:37.740Z,62.51
2023-11-29T13:42:05.325Z,63.68
2023-11-29T13:44:32.914Z,63.83
2023-11-29T13:47:00.163Z,63.44
2023-11-29T13:49:27.268Z,62.61
2023-11-29T13:52:04.289Z,62.92
2023-11-29T13:54:39.733Z,63.71
2023-11-29T13:57:06.960Z,64.10
2023-11-29T13:59:37.709Z,64.73
2023-11-29T14:02:14.403Z,66.28
2023-11-29T14:04:45.242Z,65.35
2023-11-29T14:07:13.533Z,66.26
2023-11-29T14:09:40.688Z,65.95
2023-11-29T14:12:08.070Z,67.03
2023-11-29T14:14:35.197Z,67.00
2023-11-29T14:17:02.705Z,67.46
2023-11-29T14:19:29.815Z,66.65
2023-11-29T14:21:56.872Z,66.85
2023-11-29T14:24:25.481Z,65.26
2023-11-29T14:26:54.461Z,65.27
2023-11-29T14:29:23.749Z,65.01
2023-11-29T14:31:53.053Z,65.32
2023-11-29T14:34:22.443Z,64.92
2023-11-29T14:36:54.812Z,64.69
2023-11-29T14:39:26.358Z,64.90
2023-11-29T14:41:54.714Z,66.83
2023-11-29T14:44:22.262Z,68.65
2023-11-29T14:46:49.978Z,69.60
2023-11-29T14:49:26.205Z,70.26
2023-11-29T14:51:57.845Z,68.57
2023-11-29T14:54:26.309Z,69.32
2023-11-29T14:56:54.317Z,69.17
2023-11-29T14:59:21.641Z,67.32
2023-11-29T15:01:48.776Z,65.23
2023-11-29T15:04:15.900Z,66.05
2023-11-29T15:06:44.222Z,65.19
2023-11-29T15:09:11.502Z,66.34
2023-11-29T15:11:38.766Z,65.42
2023-11-29T15:14:05.898Z,65.16
2023-11-29T15:16:33.947Z,65.20
2023-11-29T15:19:03.657Z,66.06
2023-11-29T15:21:31.268Z,65.60
2023-11-29T15:23:58.701Z,65.83
2023-11-29T15:26:25.829Z,66.34
2023-11-29T15:28:53.228Z,66.70
2023-11-29T15:31:20.842Z,66.28
2023-11-29T15:33:47.942Z,67.58
2023-11-29T15:36:16.290Z,66.67
2023-11-29T15:38:43.454Z,67.03
2023-11-29T15:41:10.469Z,66.73
2023-11-29T15:43:37.455Z,67.04
2023-11-29T15:46:05.903Z,67.98
2023-11-29T15:48:37.314Z,67.48
2023-11-29T15:51:06.054Z,67.05
2023-11-29T15:53:35.815Z,67.45
2023-11-29T15:56:03.973Z,67.93
2023-11-29T15:58:31.307Z,68.62
2023-11-29T16:00:58.421Z,69.51
2023-11-29T16:03:25.489Z,69.63
2023-11-29T16:05:57.589Z,69.34
2023-11-29T16:08:24.656Z,70.10
2023-11-29T16:10:51.767Z,70.98
2023-11-29T16:13:19.068Z,69.84
2023-11-29T16:15:47.656Z,71.99
2023-11-29T16:18:14.941Z,72.33
2023-11-29T16:20:42.172Z,71.43
2023-11-29T16:23:10.292Z,72.62
2023-11-29T16:25:37.381Z,72.43
2023-11-29T16:28:04.707Z,72.46
2023-11-29T16:30:32.346Z,73.22
2023-11-29T16:32:59.647Z,73.20
2023-11-29T16:35:26.739Z,73.51
2023-11-29T16:37:53.809Z,74.41
2023-11-29T16:40:22.514Z,75.75
2023-11-29T16:42:49.674Z,78.46
2023-11-29T16:45:17.031Z,78.54
2023-11-29T16:47:44.235Z,78.85
2023-11-29T16:50:11.591Z,78.84
2023-11-29T16:52:38.962Z,79.75
2023-11-29T16:55:06.917Z,80.84
2023-11-29T16:57:33.888Z,80.38
2023-11-29T17:00:00.938Z,79.11
2023-11-29T17:02:28.825Z,78.87
2023-11-29T17:04:56.124Z,79.19
2023-11-29T17:07:23.358Z,79.42
2023-11-29T17:09:50.365Z,80.63
2023-11-29T17:12:18.443Z,80.61
2023-11-29T17:14:48.789Z,79.68
2023-11-29T17:17:22.758Z,80.21
2023-11-29T17:19:51.519Z,80.79
2023-11-29T17:22:21.522Z,80.03
2023-11-29T17:24:48.735Z,79.92
2023-11-29T17:27:15.972Z,79.69
2023-11-29T17:29:42.991Z,80.10
2023-11-29T17:32:10.026Z,80.88
2023-11-29T17:34:37.050Z,80.64
2023-11-29T17:37:05.383Z,81.62
2023-11-29T17:39:32.868Z,82.32
2023-11-29T17:41:59.952Z,82.18
2023-11-29T17:44:27.065Z,84.22
2023-11-29T17:46:54.936Z,84.80
2023-11-29T17:49:22.033Z,84.01
2023-11-29T17:51:49.091Z,83.03
2023-11-29T17:54:19.207Z,82.76
2023-11-29T17:56:46.260Z,83.24
2023-11-29T17:59:14.424Z,82.80
2023-11-29T18:01:42.483Z,82.46
2023-11-29T18:04:10.269Z,82.73
2023-11-29T18:06:39.938Z,83.11
2023-11-29T18:09:08.720Z,83.35
2023-11-29T18:11:37.020Z,82.55
2023-11-29T18:14:04.059Z,82.10
2023-11-29T18:16:31.568Z,82.24
2023-11-29T18:18:58.755Z,82.89
2023-11-29T18:21:26.091Z,85.13
2023-11-29T18:23:56.002Z,86.43
2023-11-29T18:26:23.762Z,87.02
2023-11-29T18:28:54.027Z,86.88
2023-11-29T18:31:21.298Z,86.83
2023-11-29T18:33:48.552Z,85.02
2023-11-29T18:36:17.324Z,85.05
2023-11-29T18:38:44.598Z,82.79
2023-11-29T18:41:11.729Z,83.33
2023-11-29T18:43:42.706Z,82.37
2023-11-29T18:46:09.908Z,83.27
2023-11-29T18:48:37.070Z,82.29
2023-11-29T18:51:07.237Z,83.13
2023-11-29T18:53:34.477Z,82.82
2023-11-29T18:56:01.606Z,82.93
2023-11-29T18:58:29.796Z,82.92
2023-11-29T19:00:57.017Z,81.73
2023-11-29T19:03:27.920Z,82.10
2023-11-29T19:05:58.762Z,82.76
2023-11-29T19:08:28.952Z,81.76
2023-11-29T19:11:11.440Z,81.35
2023-11-29T19:13:38.589Z,80.45
2023-11-29T19:16:06.185Z,80.27
2023-11-29T19:18:33.307Z,80.17
2023-11-29T19:21:00.670Z,81.01
2023-11-29T19:23:35.671Z,80.98
2023-11-29T19:26:05.692Z,82.07
2023-11-29T19:28:33.290Z,81.29
2023-11-29T19:31:01.458Z,81.07
2023-11-29T19:33:30.912Z,80.85
2023-11-29T19:35:58.203Z,81.04
2023-11-29T19:38:25.567Z,81.00
2023-11-29T19:40:55.872Z,81.84
2023-11-29T19:43:22.984Z,81.13
2023-11-29T19:45:49.977Z,81.17
2023-11-29T19:48:17.083Z,81.77
2023-11-29T19:50:44.250Z,82.58
2023-11-29T19:53:11.269Z,81.98
2023-11-29T19:55:38.304Z,82.87
2023-11-29T19:58:06.043Z,82.13
2023-11-29T20:00:35.180Z,81.91
2023-11-29T20:03:02.329Z,83.86
2023-11-29T20:05:29.532Z,83.47
2023-11-29T20:07:56.502Z,84.33
2023-11-29T20:10:23.538Z,83.31
2023-11-29T20:12:50.607Z,83.18
2023-11-29T20:15:17.693Z,81.62
2023-11-29T20:17:44.901Z,82.31
2023-11-29T20:20:16.631Z,81.41
2023-11-29T20:22:48.295Z,80.96
2023-11-29T20:25:15.458Z,82.05
2023-11-29T20:27:43.355Z,81.92
2023-11-29T20:30:11.401Z,80.75
2023-11-29T20:32:38.471Z,81.56
2023-11-29T20:35:25.069Z,82.49
2023-11-29T20:37:54.274Z,82.41
2023-11-29T20:40:21.303Z,82.59
2023-11-29T20:42:48.420Z,84.54
2023-11-29T20:45:15.608Z,85.55
2023-11-29T20:47:42.771Z,84.62
2023-11-29T20:50:13.057Z,83.44
2023-11-29T20:52:40.044Z,84.57
2023-11-29T20:55:07.420Z,83.33
2023-11-29T20:57:34.623Z,82.85
2023-11-29T21:00:01.696Z,82.82
2023-11-29T21:02:31.318Z,83.46
2023-11-29T21:04:58.368Z,83.85
2023-11-29T21:07:25.549Z,83.19
2023-11-29T21:09:52.546Z,82.56
2023-11-29T21:12:19.527Z,82.31
2023-11-29T21:14:47.029Z,83.33
2023-11-29T21:17:14.090Z,82.41
2023-11-29T21:19:41.226Z,83.28
2023-11-29T21:22:08.222Z,82.26
2023-11-29T21:24:35.313Z,83.18
2023-11-29T21:27:02.472Z,83.07
2023-11-29T21:29:30.006Z,81.20
2023-11-29T21:31:57.281Z,82.28
2023-11-29T21:34:24.436Z,81.42
2023-11-29T21:36:51.509Z,81.70
2023-11-29T21:39:18.696Z,82.06
2023-11-29T21:41:47.164Z,81.18
2023-11-29T21:44:14.333Z,82.03
2023-11-29T21:46:41.492Z,81.07
2023-11-29T21:49:08.664Z,83.87
2023-11-29T21:51:35.694Z,82.34
2023-11-29T21:54:02.878Z,83.53
2023-11-29T21:56:30.145Z,84.20
2023-11-29T21:58:57.181Z,82.97
2023-11-29T22:01:25.936Z,84.32
2023-11-29T22:03:53.132Z,84.20
2023-11-29T22:06:20.222Z,83.40
2023-11-29T22:08:51.124Z,83.33
2023-11-29T22:11:19.254Z,83.09
2023-11-29T22:13:47.047Z,85.96
2023-11-29T22:16:24.260Z,86.43
2023-11-29T22:18:52.770Z,86.39
2023-11-29T22:21:27.081Z,87.15
2023-11-29T22:23:56.823Z,87.72
2023-11-29T22:26:24.440Z,88.36
2023-11-29T22:28:51.512Z,86.73
2023-11-29T22:31:18.575Z,87.51
2023-11-29T22:33:45.662Z,86.19
2023-11-29T22:36:21.924Z,86.60
2023-11-29T22:38:49.525Z,86.39
2023-11-29T22:41:25.334Z,86.19
2023-11-29T22:43:54.081Z,85.44
2023-11-29T22:46:24.075Z,84.88
2023-11-29T22:48:51.370Z,85.03
2023-11-29T22:51:23.215Z,83.91
2023-11-29T22:53:52.119Z,82.94
2023-11-29T22:56:19.374Z,82.49
2023-11-29T22:58:47.891Z,83.50
2023-11-29T23:01:17.996Z,83.30
2023-11-29T23:03:45.034Z,82.58
2023-11-29T23:06:12.742Z,83.26
2023-11-29T23:08:40.184Z,85.11
2023-11-29T23:11:07.649Z,85.85
2023-11-29T23:13:34.682Z,83.47
2023-11-29T23:16:01.732Z,84.72
2023-11-29T23:18:28.927Z,84.57
2023-11-29T23:20:56.086Z,84.70
2023-11-29T23:23:26.676Z,85.46
2023-11-29T23:25:54.558Z,86.02
2023-11-29T23:28:21.624Z,85.65
2023-11-29T23:30:49.114Z,85.29
2023-11-29T23:33:16.219Z,85.42
2023-11-29T23:35:43.321Z,85.68
2023-11-29T23:38:10.320Z,85.81
2023-11-29T23:40:37.305Z,83.84
2023-11-29T23:43:04.292Z,83.95
2023-11-29T23:45:35.613Z,84.57
2023-11-29T23:48:04.076Z,85.53
2023-11-29T23:50:31.409Z,85.46
2023-11-29T23:52:58.406Z,84.84
2023-11-29T23:55:25.648Z,84.50
2023-11-29T23:57:52.710Z,83.98
